createdAt,value
2019-03-28T00:04:19.720Z,6.47
2019-03-28T00:09:23.976Z,7.17
2019-03-28T00:14:28.262Z,8.50
2019-03-28T00:19:32.785Z,8.57
2019-03-28T00:24:42.481Z,6.27
2019-03-28T00:29:46.685Z,6.60
2019-03-28T00:34:50.918Z,7.50
2019-03-28T00:39:55.351Z,6.57
2019-03-28T00:45:00.003Z,7.53
2019-03-28T00:50:04.437Z,6.57
2019-03-28T00:55:08.773Z,6.50
2019-03-28T01:00:14.347Z,6.33
2019-03-28T01:05:18.988Z,8.03
2019-03-28T01:10:23.223Z,6.70
2019-03-28T01:15:27.578Z,8.53
2019-03-28T01:20:32.137Z,8.17
2019-03-28T01:25:36.407Z,6.83
2019-03-28T01:30:40.656Z,7.90
2019-03-28T01:35:44.878Z,8.43
2019-03-28T01:40:49.248Z,8.67
2019-03-28T01:45:53.834Z,7.50
2019-03-28T01:50:58.081Z,8.33
2019-03-28T01:56:02.318Z,9.73
2019-03-28T02:01:06.794Z,12.80
2019-03-28T02:06:11.023Z,12.57
2019-03-28T02:11:15.281Z,11.27
2019-03-28T02:16:19.685Z,14.13
2019-03-28T02:21:24.135Z,14.57
2019-03-28T02:26:28.344Z,12.97
2019-03-28T02:31:32.850Z,12.93
2019-03-28T02:36:37.053Z,11.17
2019-03-28T02:41:41.259Z,11.53
2019-03-28T02:46:45.450Z,11.73
2019-03-28T02:51:49.658Z,13.77
2019-03-28T02:56:54.148Z,13.90
2019-03-28T03:01:58.350Z,11.73
2019-03-28T03:07:02.883Z,13.07
2019-03-28T03:12:07.072Z,12.30
2019-03-28T03:17:11.294Z,12.73
2019-03-28T03:22:15.510Z,10.87
2019-03-28T03:27:19.717Z,15.97
2019-03-28T03:32:23.904Z,9.90
2019-03-28T03:37:29.752Z,11.00
2019-03-28T03:42:34.282Z,9.97
2019-03-28T03:47:38.577Z,9.40
2019-03-28T03:52:42.761Z,12.90
2019-03-28T03:57:47.059Z,11.00
2019-03-28T04:02:51.633Z,12.07
2019-03-28T04:07:55.829Z,10.60
2019-03-28T04:13:00.394Z,10.93
2019-03-28T04:18:04.922Z,9.07
2019-03-28T04:23:09.119Z,10.23
2019-03-28T04:28:24.794Z,9.03
2019-03-28T04:33:19.530Z,10.50
2019-03-28T04:38:24.592Z,10.50
2019-03-28T04:43:29.072Z,7.67
2019-03-28T04:48:33.625Z,9.77
2019-03-28T04:53:37.834Z,9.13
2019-03-28T04:58:44.809Z,9.43
2019-03-28T05:03:48.045Z,10.10
2019-03-28T05:08:52.242Z,8.13
2019-03-28T05:13:56.444Z,9.50
2019-03-28T05:19:01.008Z,6.30
2019-03-28T05:24:05.227Z,8.60
2019-03-28T05:29:09.430Z,7.53
2019-03-28T05:34:14.009Z,7.43
2019-03-28T05:39:18.198Z,8.60
2019-03-28T05:44:22.528Z,9.03
2019-03-28T05:49:27.125Z,6.70
2019-03-28T05:54:31.309Z,6.13
2019-03-28T05:59:35.785Z,5.70
2019-03-28T06:04:39.989Z,6.70
2019-03-28T06:09:44.581Z,8.47
2019-03-28T06:14:48.936Z,5.60
2019-03-28T06:19:53.159Z,5.13
2019-03-28T06:24:57.394Z,5.70
2019-03-28T06:30:20.806Z,7.80
2019-03-28T06:35:25.005Z,6.20
2019-03-28T06:40:29.232Z,6.57
2019-03-28T06:45:33.448Z,5.97
2019-03-28T06:50:37.864Z,7.63
2019-03-28T06:55:42.359Z,4.47
2019-03-28T07:00:47.107Z,6.07
2019-03-28T07:05:51.300Z,5.07
2019-03-28T07:10:57.900Z,5.70
2019-03-28T07:16:01.453Z,4.73
2019-03-28T07:21:05.677Z,4.77
2019-03-28T07:26:09.928Z,7.70
2019-03-28T07:31:14.149Z,5.30
2019-03-28T07:36:18.417Z,6.77
2019-03-28T07:41:22.710Z,5.73
2019-03-28T07:46:26.906Z,6.70
2019-03-28T07:51:31.118Z,6.47
2019-03-28T07:56:35.346Z,7.53
2019-03-28T08:01:39.587Z,6.77
2019-03-28T08:06:49.551Z,9.07
2019-03-28T08:11:49.710Z,7.37
2019-03-28T08:16:53.943Z,9.33
2019-03-28T08:21:58.449Z,6.80
2019-03-28T08:27:02.701Z,7.33
2019-03-28T08:32:13.449Z,7.40
2019-03-28T08:37:17.218Z,8.23
2019-03-28T08:42:21.511Z,4.97
2019-03-28T08:47:25.718Z,7.83
2019-03-28T08:52:29.938Z,9.47
2019-03-28T08:57:34.179Z,8.07
2019-03-28T09:02:38.404Z,6.13
2019-03-28T09:07:42.925Z,6.93
2019-03-28T09:12:47.190Z,6.03
2019-03-28T09:17:51.397Z,4.97
2019-03-28T09:22:55.938Z,7.47
2019-03-28T09:28:00.173Z,5.77
2019-03-28T09:33:05.009Z,8.53
2019-03-28T09:38:09.290Z,7.07
2019-03-28T09:43:13.505Z,7.30
2019-03-28T09:48:17.705Z,5.93
2019-03-28T09:53:22.171Z,8.37
2019-03-28T09:58:26.374Z,6.43
2019-03-28T10:03:30.645Z,11.43
2019-03-28T10:08:34.937Z,7.47
2019-03-28T10:13:39.435Z,7.33
2019-03-28T10:18:43.641Z,6.80
2019-03-28T10:23:47.855Z,7.30
2019-03-28T10:28:52.134Z,7.93
2019-03-28T10:33:56.414Z,4.70
2019-03-28T10:39:00.903Z,8.47
2019-03-28T10:44:05.190Z,5.90
2019-03-28T10:49:09.403Z,7.80
2019-03-28T10:54:19.980Z,6.23
2019-03-28T10:59:23.468Z,5.47
2019-03-28T11:04:26.358Z,6.93
2019-03-28T11:09:31.117Z,7.27
2019-03-28T11:14:35.361Z,5.63
2019-03-28T11:19:39.582Z,4.97
2019-03-28T11:24:46.340Z,7.77
2019-03-28T11:29:49.682Z,8.90
2019-03-28T11:34:54.139Z,7.47
2019-03-28T11:39:58.368Z,5.37
2019-03-28T11:45:02.573Z,7.83
2019-03-28T11:50:07.961Z,8.37
2019-03-28T11:55:12.318Z,6.43
2019-03-28T12:00:18.241Z,5.77
2019-03-28T12:05:22.451Z,7.60
2019-03-28T12:10:26.748Z,6.00
2019-03-28T12:15:30.940Z,6.23
2019-03-28T12:20:35.168Z,6.23
2019-03-28T12:25:39.613Z,8.57
2019-03-28T12:30:44.031Z,8.10
2019-03-28T12:35:48.331Z,9.47
2019-03-28T12:40:53.144Z,7.47
2019-03-28T12:45:57.470Z,8.10
2019-03-28T12:51:01.756Z,8.30
2019-03-28T12:56:05.993Z,8.80
2019-03-28T13:01:10.178Z,6.97
2019-03-28T13:06:14.455Z,6.27
2019-03-28T13:11:19.572Z,8.60
2019-03-28T13:16:24.515Z,10.00
2019-03-28T13:21:28.733Z,11.07
2019-03-28T13:26:33.265Z,7.37
2019-03-28T13:31:37.476Z,10.13
2019-03-28T13:36:41.682Z,8.40
2019-03-28T13:41:46.179Z,7.53
2019-03-28T13:46:50.681Z,8.80
2019-03-28T13:51:54.890Z,9.57
2019-03-28T13:56:59.106Z,10.57
2019-03-28T14:07:13.513Z,7.90
2019-03-28T14:12:17.807Z,7.13
2019-03-28T14:17:22.078Z,9.80
2019-03-28T14:22:26.419Z,7.53
2019-03-28T14:27:31.266Z,7.40
2019-03-28T14:32:35.822Z,9.50
2019-03-28T14:37:40.864Z,7.93
2019-03-28T14:42:45.523Z,9.67
2019-03-28T14:47:49.862Z,7.03
2019-03-28T14:52:54.605Z,9.83
2019-03-28T14:57:59.782Z,9.43
2019-03-28T15:03:04.416Z,8.37
2019-03-28T15:08:08.633Z,8.33
2019-03-28T15:13:13.494Z,10.03
2019-03-28T15:18:18.131Z,8.43
2019-03-28T15:23:22.661Z,6.87
2019-03-28T15:28:27.020Z,8.27
2019-03-28T15:33:39.443Z,10.10
2019-03-28T15:38:37.955Z,8.30
2019-03-28T15:44:01.064Z,9.97
2019-03-28T15:49:06.396Z,8.00
2019-03-28T15:54:10.817Z,6.47
2019-03-28T15:59:16.978Z,6.50
2019-03-28T16:04:24.826Z,9.40
2019-03-28T16:09:57.380Z,7.00
2019-03-28T16:15:05.614Z,6.53
2019-03-28T16:20:15.471Z,8.67
2019-03-28T16:25:22.087Z,7.97
2019-03-28T16:30:46.908Z,7.10
2019-03-28T16:36:56.886Z,7.20
2019-03-28T17:00:59.477Z,5.70
2019-03-28T17:07:04.871Z,6.97
2019-03-28T17:12:15.697Z,7.10
2019-03-28T17:37:39.131Z,6.37
2019-03-28T18:35:44.580Z,6.93
2019-03-28T18:41:39.037Z,7.50
2019-03-28T19:59:08.727Z,16.10
2019-03-28T20:03:15.901Z,23.13
2019-03-28T20:08:20.114Z,22.03
2019-03-28T20:13:24.353Z,21.60
2019-03-28T20:18:28.700Z,26.37
2019-03-28T20:23:35.465Z,26.90
2019-03-28T20:28:42.998Z,23.03
2019-03-28T20:33:48.953Z,24.20
2019-03-28T20:39:06.206Z,20.80
2019-03-28T20:44:11.796Z,22.13
2019-03-28T20:49:16.305Z,21.43
2019-03-28T20:54:21.230Z,20.20
2019-03-28T20:59:25.949Z,21.47
2019-03-28T21:04:31.706Z,20.53
2019-03-28T21:09:36.339Z,22.33
2019-03-28T21:14:40.954Z,22.33
2019-03-28T21:19:45.234Z,24.30
2019-03-28T21:24:50.130Z,23.20
2019-03-28T21:29:55.066Z,24.23
2019-03-28T21:34:59.412Z,22.30
2019-03-28T21:40:04.158Z,20.90
2019-03-28T21:45:10.599Z,25.73
2019-03-28T21:50:15.024Z,21.47
2019-03-28T21:55:19.740Z,21.37
2019-03-28T22:00:24.236Z,24.00
2019-03-28T22:05:28.946Z,19.57
2019-03-28T22:10:33.832Z,10.97
2019-03-28T22:15:38.468Z,9.73
2019-03-28T22:20:43.698Z,11.10
2019-03-28T22:25:49.319Z,12.60
2019-03-28T22:30:53.531Z,9.53
2019-03-28T22:36:00.989Z,8.57
2019-03-28T22:41:05.202Z,13.10
2019-03-28T22:46:09.870Z,11.40
2019-03-28T22:51:14.298Z,14.57
2019-03-28T22:56:18.526Z,11.27
2019-03-28T23:01:22.901Z,10.37
2019-03-28T23:06:27.188Z,10.70
2019-03-28T23:11:31.759Z,12.50
2019-03-28T23:16:35.976Z,11.57
2019-03-28T23:21:41.605Z,12.43
2019-03-28T23:26:45.921Z,8.90
2019-03-28T23:31:50.847Z,11.87
